createdAt,value
2022-10-14T00:00:30.467Z,11.80
2022-10-14T00:02:57.155Z,11.80
2022-10-14T00:05:23.880Z,11.80
2022-10-14T00:07:50.743Z,11.80
2022-10-14T00:10:17.471Z,11.90
2022-10-14T00:12:44.178Z,11.90
2022-10-14T00:15:10.932Z,11.90
2022-10-14T00:17:37.599Z,11.90
2022-10-14T00:20:04.863Z,11.80
2022-10-14T00:22:31.662Z,11.90
2022-10-14T00:24:58.357Z,11.90
2022-10-14T00:27:25.007Z,11.90
2022-10-14T00:29:51.801Z,11.90
2022-10-14T00:32:18.444Z,12.00
2022-10-14T00:34:45.091Z,12.00
2022-10-14T00:37:11.735Z,12.00
2022-10-14T00:39:38.760Z,12.20
2022-10-14T00:42:05.421Z,12.20
2022-10-14T00:44:32.285Z,12.10
2022-10-14T00:46:59.033Z,12.10
2022-10-14T00:49:34.907Z,12.00
2022-10-14T00:52:06.757Z,12.10
2022-10-14T00:54:41.350Z,12.20
2022-10-14T00:57:09.168Z,12.30
2022-10-14T00:59:36.178Z,12.30
2022-10-14T01:02:02.978Z,12.50
2022-10-14T01:04:29.861Z,12.60
2022-10-14T01:07:05.294Z,12.60
2022-10-14T01:09:52.438Z,12.50
2022-10-14T01:12:29.459Z,12.50
2022-10-14T01:15:00.254Z,12.40
2022-10-14T01:17:26.915Z,12.40
2022-10-14T01:20:02.893Z,12.30
2022-10-14T01:22:36.541Z,12.30
2022-10-14T01:25:03.759Z,12.30
2022-10-14T01:27:43.682Z,12.30
2022-10-14T01:30:14.415Z,12.30
2022-10-14T01:32:43.942Z,12.40
2022-10-14T01:35:21.457Z,12.40
2022-10-14T01:37:50.950Z,12.40
2022-10-14T01:40:22.509Z,12.40
2022-10-14T01:42:49.658Z,12.40
2022-10-14T01:45:19.273Z,12.40
2022-10-14T01:47:48.696Z,12.40
2022-10-14T01:50:16.927Z,12.40
2022-10-14T01:52:52.106Z,12.40
2022-10-14T01:55:20.940Z,12.40
2022-10-14T01:57:49.755Z,12.30
2022-10-14T02:00:16.696Z,12.30
2022-10-14T02:02:43.368Z,12.30
2022-10-14T02:05:15.265Z,12.30
2022-10-14T02:07:46.466Z,12.30
2022-10-14T02:10:24.459Z,12.40
2022-10-14T02:13:00.303Z,12.40
2022-10-14T02:15:37.672Z,12.40
2022-10-14T02:18:17.736Z,12.40
2022-10-14T02:20:52.761Z,12.30
2022-10-14T02:23:21.268Z,12.30
2022-10-14T02:25:49.329Z,12.30
2022-10-14T02:28:18.965Z,12.30
2022-10-14T02:30:48.707Z,12.30
2022-10-14T02:33:15.705Z,12.30
2022-10-14T02:35:43.273Z,12.30
2022-10-14T02:38:10.194Z,12.30
2022-10-14T02:40:39.139Z,12.30
2022-10-14T02:43:08.078Z,12.30
2022-10-14T02:45:34.995Z,12.30
2022-10-14T02:48:01.706Z,12.30
2022-10-14T02:50:28.358Z,12.30
2022-10-14T02:52:54.997Z,12.30
2022-10-14T02:55:22.270Z,12.30
2022-10-14T02:57:48.906Z,12.30
2022-10-14T03:00:16.243Z,12.30
2022-10-14T03:02:42.977Z,12.30
2022-10-14T03:05:09.848Z,12.30
2022-10-14T03:07:36.473Z,12.30
2022-10-14T03:10:03.900Z,12.30
2022-10-14T03:12:30.606Z,12.30
2022-10-14T03:14:57.255Z,12.20
2022-10-14T03:17:23.928Z,12.30
2022-10-14T03:19:50.564Z,12.20
2022-10-14T03:22:17.215Z,12.30
2022-10-14T03:24:43.867Z,12.30
2022-10-14T03:27:10.467Z,12.30
2022-10-14T03:29:37.228Z,12.30
2022-10-14T03:32:04.228Z,12.30
2022-10-14T03:34:30.935Z,12.30
2022-10-14T03:36:57.594Z,12.30
2022-10-14T03:39:24.205Z,12.30
2022-10-14T03:41:50.931Z,12.30
2022-10-14T03:44:17.577Z,12.30
2022-10-14T03:46:44.222Z,12.30
2022-10-14T03:49:10.909Z,12.20
2022-10-14T03:51:37.836Z,12.20
2022-10-14T03:54:04.697Z,12.20
2022-10-14T03:56:33.738Z,12.20
2022-10-14T03:59:00.365Z,12.20
2022-10-14T04:01:27.106Z,12.20
2022-10-14T04:03:53.748Z,12.20
2022-10-14T04:06:20.373Z,12.20
2022-10-14T04:08:47.009Z,12.20
2022-10-14T04:11:13.639Z,12.20
2022-10-14T04:13:41.560Z,12.30
2022-10-14T04:16:09.140Z,12.20
2022-10-14T04:18:35.954Z,12.20
2022-10-14T04:21:03.868Z,12.20
2022-10-14T04:23:30.524Z,12.20
2022-10-14T04:25:57.149Z,12.20
2022-10-14T04:28:24.191Z,12.20
2022-10-14T04:30:50.981Z,12.20
2022-10-14T04:33:17.770Z,12.20
2022-10-14T04:35:44.422Z,12.20
2022-10-14T04:38:11.149Z,12.20
2022-10-14T04:40:37.869Z,12.20
2022-10-14T04:43:04.519Z,12.30
2022-10-14T04:45:31.820Z,12.30
2022-10-14T04:47:58.474Z,12.30
2022-10-14T04:50:25.134Z,12.30
2022-10-14T04:52:51.797Z,12.30
2022-10-14T04:55:18.985Z,12.30
2022-10-14T04:57:45.708Z,12.30
2022-10-14T05:00:12.770Z,12.20
2022-10-14T05:02:39.405Z,12.20
2022-10-14T05:05:06.724Z,12.20
2022-10-14T05:07:33.844Z,12.20
2022-10-14T05:10:01.499Z,12.20
2022-10-14T05:12:30.364Z,12.30
2022-10-14T05:14:57.061Z,12.20
2022-10-14T05:17:23.714Z,12.20
2022-10-14T05:19:50.364Z,12.20
2022-10-14T05:22:17.030Z,12.20
2022-10-14T05:24:43.845Z,12.30
2022-10-14T05:27:10.450Z,12.30
2022-10-14T05:29:37.164Z,12.30
2022-10-14T05:32:03.939Z,12.30
2022-10-14T05:34:30.822Z,12.30
2022-10-14T05:36:57.505Z,12.40
2022-10-14T05:39:24.285Z,12.40
2022-10-14T05:41:51.015Z,12.40
2022-10-14T05:44:18.079Z,12.40
2022-10-14T05:46:44.720Z,12.40
2022-10-14T05:49:11.751Z,12.40
2022-10-14T05:51:38.499Z,12.50
2022-10-14T05:54:05.208Z,12.40
2022-10-14T05:56:31.869Z,12.50
2022-10-14T05:58:58.552Z,12.50
2022-10-14T06:01:25.187Z,12.50
2022-10-14T06:03:52.375Z,12.50
2022-10-14T06:06:19.485Z,12.50
2022-10-14T06:08:46.225Z,12.40
2022-10-14T06:11:12.981Z,12.50
2022-10-14T06:13:39.690Z,12.50
2022-10-14T06:16:10.171Z,12.50
2022-10-14T06:18:37.091Z,12.50
2022-10-14T06:21:04.241Z,12.50
2022-10-14T06:23:31.317Z,12.50
2022-10-14T06:25:58.075Z,12.50
2022-10-14T06:28:25.578Z,12.60
2022-10-14T06:30:53.404Z,12.60
2022-10-14T06:33:20.604Z,12.60
2022-10-14T06:35:47.519Z,12.60
2022-10-14T06:38:14.430Z,12.60
2022-10-14T06:40:41.310Z,12.70
2022-10-14T06:43:08.117Z,12.70
2022-10-14T06:45:36.572Z,12.70
2022-10-14T06:48:04.852Z,12.80
2022-10-14T06:50:31.552Z,12.80
2022-10-14T06:52:58.297Z,12.90
2022-10-14T06:55:24.943Z,13.00
2022-10-14T06:57:51.605Z,13.00
2022-10-14T07:00:18.313Z,13.10
2022-10-14T07:02:45.158Z,13.10
2022-10-14T07:05:12.157Z,13.10
2022-10-14T07:07:39.042Z,13.20
2022-10-14T07:10:05.900Z,13.20
2022-10-14T07:12:32.505Z,13.20
2022-10-14T07:14:59.418Z,13.20
2022-10-14T07:17:26.077Z,13.20
2022-10-14T07:19:52.952Z,13.30
2022-10-14T07:22:20.130Z,13.40
2022-10-14T07:24:46.931Z,13.50
2022-10-14T07:27:16.113Z,13.60
2022-10-14T07:29:42.819Z,13.70
2022-10-14T07:32:09.429Z,13.70
2022-10-14T07:34:36.187Z,13.80
2022-10-14T07:37:02.997Z,13.80
2022-10-14T07:39:29.654Z,13.80
2022-10-14T07:41:56.271Z,13.80
2022-10-14T07:44:26.442Z,13.70
2022-10-14T07:46:54.227Z,13.70
2022-10-14T07:49:21.565Z,13.70
2022-10-14T07:51:48.316Z,13.70
2022-10-14T07:54:17.089Z,13.80
2022-10-14T07:56:44.548Z,13.70
2022-10-14T07:59:11.280Z,13.80
2022-10-14T08:01:38.204Z,13.80
2022-10-14T08:04:05.022Z,13.80
2022-10-14T08:06:31.705Z,13.80
2022-10-14T08:08:58.359Z,13.90
2022-10-14T08:11:26.159Z,13.80
2022-10-14T08:13:53.294Z,13.90
2022-10-14T08:16:24.840Z,13.90
2022-10-14T08:18:52.086Z,13.90
2022-10-14T08:21:19.340Z,13.90
2022-10-14T08:23:46.015Z,14.00
2022-10-14T08:26:23.839Z,14.00
2022-10-14T08:28:51.271Z,14.00
2022-10-14T08:31:18.252Z,14.10
2022-10-14T08:33:44.964Z,14.10
2022-10-14T08:36:12.112Z,14.20
2022-10-14T08:38:39.005Z,14.20
2022-10-14T08:41:26.050Z,14.30
2022-10-14T08:44:09.634Z,14.30
2022-10-14T08:46:56.325Z,14.40
2022-10-14T08:49:42.301Z,14.50
2022-10-14T08:52:12.872Z,14.60
2022-10-14T08:54:41.281Z,14.70
2022-10-14T08:57:12.688Z,14.80
2022-10-14T08:59:40.705Z,14.90
2022-10-14T09:02:26.315Z,15.00
2022-10-14T09:04:52.987Z,15.10
2022-10-14T09:07:20.074Z,15.20
2022-10-14T09:09:51.645Z,15.20
2022-10-14T09:12:21.866Z,15.20
2022-10-14T09:15:09.231Z,15.20
2022-10-14T09:17:44.490Z,15.20
2022-10-14T09:20:21.583Z,15.20
2022-10-14T09:22:53.365Z,15.20
2022-10-14T09:25:20.087Z,15.20
2022-10-14T09:30:14.737Z,15.20
2022-10-14T09:32:41.396Z,15.20
2022-10-14T09:35:17.009Z,15.20
2022-10-14T09:37:43.677Z,15.30
2022-10-14T09:40:13.420Z,15.20
2022-10-14T09:42:58.556Z,15.30
2022-10-14T09:45:26.215Z,15.30
2022-10-14T09:48:09.526Z,15.30
2022-10-14T09:50:39.998Z,15.30
2022-10-14T09:53:29.715Z,15.20
2022-10-14T09:55:58.437Z,15.30
2022-10-14T09:58:44.081Z,15.30
2022-10-14T10:01:16.113Z,15.40
2022-10-14T10:03:43.780Z,15.40
2022-10-14T10:06:11.718Z,15.40
2022-10-14T10:08:39.704Z,15.40
2022-10-14T10:11:11.148Z,15.40
2022-10-14T10:13:46.505Z,15.40
2022-10-14T10:16:34.651Z,15.50
2022-10-14T10:19:21.620Z,15.50
2022-10-14T10:21:48.377Z,15.50
2022-10-14T10:24:18.519Z,15.50
2022-10-14T10:26:45.195Z,15.60
2022-10-14T10:29:22.246Z,15.60
2022-10-14T10:31:55.664Z,15.60
2022-10-14T10:34:25.309Z,15.70
2022-10-14T10:37:00.247Z,15.70
2022-10-14T10:39:35.661Z,15.70
2022-10-14T10:42:06.129Z,15.70
2022-10-14T10:44:44.185Z,15.80
2022-10-14T10:47:10.865Z,15.80
2022-10-14T10:50:02.056Z,15.80
2022-10-14T10:52:49.149Z,15.80
2022-10-14T10:55:18.843Z,15.80
2022-10-14T10:58:07.473Z,15.90
2022-10-14T11:00:46.057Z,15.90
2022-10-14T11:03:25.340Z,15.90
2022-10-14T11:06:12.943Z,16.00
2022-10-14T11:08:58.098Z,16.00
2022-10-14T11:11:47.682Z,16.00
2022-10-14T11:14:26.452Z,16.00
2022-10-14T11:17:01.384Z,16.10
2022-10-14T11:19:40.862Z,16.10
2022-10-14T11:22:28.746Z,16.20
2022-10-14T11:25:15.722Z,16.20
2022-10-14T11:27:45.505Z,16.30
2022-10-14T11:30:17.250Z,16.30
2022-10-14T11:32:53.012Z,16.30
2022-10-14T11:35:38.035Z,16.30
2022-10-14T11:38:14.152Z,16.40
2022-10-14T11:40:40.863Z,16.50
2022-10-14T11:43:27.775Z,16.60
2022-10-14T11:46:00.750Z,16.80
2022-10-14T11:48:47.790Z,16.80
2022-10-14T11:51:14.452Z,16.80
2022-10-14T11:53:52.366Z,16.70
2022-10-14T11:56:32.142Z,16.70
2022-10-14T11:59:20.138Z,16.70
2022-10-14T12:01:48.178Z,16.70
2022-10-14T12:04:19.766Z,16.60
2022-10-14T12:06:53.160Z,16.70
2022-10-14T12:09:48.977Z,16.70
2022-10-14T12:12:17.656Z,16.80
2022-10-14T12:14:50.623Z,16.80
2022-10-14T12:17:21.534Z,16.80
2022-10-14T12:19:48.735Z,16.90
2022-10-14T12:22:19.114Z,16.90
2022-10-14T12:24:53.238Z,16.90
2022-10-14T12:27:21.309Z,16.90
2022-10-14T12:29:49.837Z,17.10
2022-10-14T12:32:16.496Z,17.10
2022-10-14T12:34:43.935Z,17.20
2022-10-14T12:37:31.718Z,17.30
2022-10-14T12:40:07.867Z,17.30
2022-10-14T12:42:44.106Z,17.30
2022-10-14T12:45:21.570Z,17.30
2022-10-14T12:48:01.166Z,17.30
2022-10-14T12:50:34.723Z,17.30
2022-10-14T12:53:02.884Z,17.30
2022-10-14T12:55:30.339Z,17.20
2022-10-14T12:58:04.690Z,17.20
2022-10-14T13:00:36.665Z,17.10
2022-10-14T13:03:04.409Z,17.10
2022-10-14T13:05:31.281Z,17.10
2022-10-14T13:08:14.736Z,17.10
2022-10-14T13:10:46.996Z,17.10
2022-10-14T13:13:32.854Z,17.10
2022-10-14T13:15:59.938Z,17.10
2022-10-14T13:18:39.014Z,17.10
2022-10-14T13:21:07.229Z,17.10
2022-10-14T13:23:36.969Z,17.00
2022-10-14T13:26:11.367Z,17.00
2022-10-14T13:29:04.230Z,17.00
2022-10-14T13:31:37.827Z,17.10
2022-10-14T13:34:18.487Z,17.10
2022-10-14T13:37:00.575Z,17.10
2022-10-14T13:39:27.602Z,17.10
2022-10-14T13:41:56.621Z,17.20
2022-10-14T13:44:25.026Z,17.20
2022-10-14T13:46:52.094Z,17.20
2022-10-14T13:49:24.518Z,17.20
2022-10-14T13:52:01.888Z,17.10
2022-10-14T13:54:30.935Z,17.10
2022-10-14T13:57:28.989Z,17.10
2022-10-14T14:00:19.147Z,17.10
2022-10-14T14:02:33.872Z,17.10
2022-10-14T14:05:01.642Z,17.10
2022-10-14T14:10:22.437Z,17.10
2022-10-14T14:12:49.367Z,17.10
2022-10-14T14:15:24.647Z,17.20
2022-10-14T14:17:51.485Z,17.20
2022-10-14T14:20:22.560Z,17.20
2022-10-14T14:22:49.727Z,17.20
2022-10-14T14:25:36.688Z,17.20
2022-10-14T14:28:06.408Z,17.20
2022-10-14T14:30:34.452Z,17.20
2022-10-14T14:33:02.512Z,17.20
2022-10-14T14:35:29.202Z,17.20
2022-10-14T14:37:56.635Z,17.10
2022-10-14T14:40:27.884Z,17.10
2022-10-14T14:42:56.163Z,17.00
2022-10-14T14:45:26.674Z,17.00
2022-10-14T14:47:59.003Z,17.00
2022-10-14T14:50:45.048Z,16.90
2022-10-14T14:53:13.968Z,16.90
2022-10-14T14:55:43.461Z,16.90
2022-10-14T14:58:18.907Z,16.90
2022-10-14T15:00:45.714Z,16.90
2022-10-14T15:03:13.204Z,16.80
2022-10-14T15:05:40.021Z,16.80
2022-10-14T15:08:14.573Z,16.80
2022-10-14T15:10:46.055Z,16.80
2022-10-14T15:13:24.345Z,16.70
2022-10-14T15:15:54.293Z,16.70
2022-10-14T15:18:24.441Z,16.70
2022-10-14T15:20:51.396Z,16.60
2022-10-14T15:23:37.034Z,16.50
2022-10-14T15:26:04.147Z,16.50
2022-10-14T15:28:31.727Z,16.50
2022-10-14T15:31:03.009Z,16.40
2022-10-14T15:33:32.448Z,16.50
2022-10-14T15:36:00.259Z,16.40
2022-10-14T15:38:27.379Z,16.40
2022-10-14T15:40:54.195Z,16.30
2022-10-14T15:43:25.311Z,16.20
2022-10-14T15:46:11.842Z,16.20
2022-10-14T15:48:46.306Z,16.20
2022-10-14T15:51:14.256Z,16.20
2022-10-14T15:53:40.920Z,16.20
2022-10-14T15:56:07.904Z,16.20
2022-10-14T15:58:35.037Z,16.20
2022-10-14T16:01:02.247Z,16.10
2022-10-14T16:03:34.561Z,16.10
2022-10-14T16:06:02.696Z,16.10
2022-10-14T16:08:29.419Z,16.10
2022-10-14T16:10:57.433Z,16.00
2022-10-14T16:13:24.062Z,16.00
2022-10-14T16:15:56.457Z,16.00
2022-10-14T16:18:23.508Z,15.90
2022-10-14T16:20:50.811Z,15.80
2022-10-14T16:23:17.955Z,15.80
2022-10-14T16:25:45.967Z,15.80
2022-10-14T16:28:13.055Z,15.80
2022-10-14T16:30:41.472Z,15.70
2022-10-14T16:33:08.220Z,15.70
2022-10-14T16:35:34.903Z,15.70
2022-10-14T16:38:01.611Z,15.60
2022-10-14T16:40:29.425Z,15.60
2022-10-14T16:42:57.533Z,15.50
2022-10-14T16:45:24.152Z,15.50
2022-10-14T16:47:53.056Z,15.40
2022-10-14T16:50:19.756Z,15.40
2022-10-14T16:53:06.046Z,15.40
2022-10-14T16:55:33.078Z,15.40
2022-10-14T16:57:59.860Z,15.40
2022-10-14T17:00:26.556Z,15.40
2022-10-14T17:02:54.267Z,15.40
2022-10-14T17:05:20.934Z,15.30
2022-10-14T17:07:47.624Z,15.30
2022-10-14T17:10:14.289Z,15.30
2022-10-14T17:12:42.229Z,15.30
2022-10-14T17:15:09.126Z,15.30
2022-10-14T17:17:35.811Z,15.20
2022-10-14T17:20:02.514Z,15.20
2022-10-14T17:22:29.219Z,15.20
2022-10-14T17:24:55.954Z,15.10
2022-10-14T17:27:24.212Z,15.10
2022-10-14T17:29:51.145Z,15.10
2022-10-14T17:32:18.116Z,15.10
2022-10-14T17:34:45.001Z,15.00
2022-10-14T17:37:11.821Z,15.00
2022-10-14T17:39:38.585Z,15.00
2022-10-14T17:42:05.302Z,15.00
2022-10-14T17:44:32.696Z,15.00
2022-10-14T17:47:00.447Z,14.90
2022-10-14T17:49:27.176Z,15.00
2022-10-14T17:52:02.180Z,14.90
2022-10-14T17:54:32.216Z,14.90
2022-10-14T17:56:58.963Z,14.90
2022-10-14T17:59:25.663Z,14.90
2022-10-14T18:02:07.557Z,14.90
2022-10-14T18:04:34.499Z,14.90
2022-10-14T18:07:01.434Z,14.80
2022-10-14T18:09:28.088Z,14.80
2022-10-14T18:12:10.663Z,14.80
2022-10-14T18:14:38.298Z,14.80
2022-10-14T18:17:05.245Z,14.80
2022-10-14T18:19:32.219Z,14.80
2022-10-14T18:21:59.069Z,14.80
2022-10-14T18:24:29.874Z,14.80
2022-10-14T18:26:56.485Z,14.70
2022-10-14T18:29:23.774Z,14.70
2022-10-14T18:34:24.719Z,14.60
2022-10-14T18:36:51.408Z,14.60
2022-10-14T18:39:20.019Z,14.60
2022-10-14T18:41:46.672Z,14.50
2022-10-14T18:44:13.321Z,14.50
2022-10-14T18:46:40.164Z,14.40
2022-10-14T18:49:08.104Z,14.40
2022-10-14T18:51:35.867Z,14.50
2022-10-14T18:54:05.299Z,14.50
2022-10-14T18:56:33.956Z,14.50
2022-10-14T19:01:29.103Z,14.50
2022-10-14T19:03:56.339Z,14.40
2022-10-14T19:06:23.566Z,14.40
2022-10-14T19:08:50.412Z,14.40
2022-10-14T19:11:20.351Z,14.40
2022-10-14T19:13:47.889Z,14.40
2022-10-14T19:16:15.740Z,14.40
2022-10-14T19:18:42.449Z,14.40
2022-10-14T19:21:11.045Z,14.30
2022-10-14T19:23:39.042Z,14.30
2022-10-14T19:26:25.593Z,14.30
2022-10-14T19:28:53.200Z,14.30
2022-10-14T19:31:21.678Z,14.30
2022-10-14T19:33:48.798Z,14.30
2022-10-14T19:36:17.075Z,14.30
2022-10-14T19:38:52.317Z,14.40
2022-10-14T19:41:18.989Z,14.40
2022-10-14T19:43:45.880Z,14.30
2022-10-14T19:46:13.354Z,14.30
2022-10-14T19:48:40.121Z,14.30
2022-10-14T19:51:09.997Z,14.40
2022-10-14T19:53:37.588Z,14.40
2022-10-14T19:56:05.378Z,14.40
2022-10-14T19:58:32.374Z,14.40
2022-10-14T20:01:08.417Z,14.40
2022-10-14T20:03:35.466Z,14.40
2022-10-14T20:06:02.580Z,14.40
2022-10-14T20:08:29.413Z,14.30
2022-10-14T20:10:56.192Z,14.40
2022-10-14T20:13:22.892Z,14.40
2022-10-14T20:15:56.017Z,14.30
2022-10-14T20:18:23.412Z,14.30
2022-10-14T20:20:50.578Z,14.30
2022-10-14T20:23:18.248Z,14.30
2022-10-14T20:25:45.235Z,14.20
2022-10-14T20:28:12.487Z,14.20
2022-10-14T20:30:39.703Z,14.20
2022-10-14T20:33:06.423Z,14.20
2022-10-14T20:35:33.191Z,14.20
2022-10-14T20:38:00.031Z,14.10
2022-10-14T20:40:27.109Z,14.10
2022-10-14T20:42:54.203Z,14.10
2022-10-14T20:45:21.000Z,14.20
2022-10-14T20:47:53.555Z,14.20
2022-10-14T20:50:21.564Z,14.20
2022-10-14T20:52:48.632Z,14.10
2022-10-14T20:55:15.372Z,14.10
2022-10-14T20:57:42.063Z,14.00
2022-10-14T21:00:09.152Z,14.00
2022-10-14T21:02:35.875Z,13.90
2022-10-14T21:05:02.641Z,13.90
2022-10-14T21:07:29.308Z,13.90
2022-10-14T21:09:55.942Z,13.90
2022-10-14T21:12:22.793Z,13.90
2022-10-14T21:14:49.610Z,13.90
2022-10-14T21:17:16.481Z,13.90
2022-10-14T21:19:43.188Z,13.90
2022-10-14T21:22:09.907Z,13.90
2022-10-14T21:24:40.648Z,13.90
2022-10-14T21:27:07.305Z,13.90
2022-10-14T21:29:33.985Z,13.90
2022-10-14T21:32:02.210Z,13.90
2022-10-14T21:34:30.075Z,13.80
2022-10-14T21:36:57.086Z,13.80
2022-10-14T21:39:26.738Z,13.70
2022-10-14T21:41:53.497Z,13.70
2022-10-14T21:44:20.902Z,13.70
2022-10-14T21:46:48.199Z,13.60
2022-10-14T21:49:15.091Z,13.70
2022-10-14T21:51:41.873Z,13.70
2022-10-14T21:54:12.334Z,13.70
2022-10-14T21:56:39.621Z,13.70
2022-10-14T21:59:06.778Z,13.70
2022-10-14T22:01:33.830Z,13.70
2022-10-14T22:04:03.571Z,13.70
2022-10-14T22:06:30.892Z,13.60
2022-10-14T22:08:58.841Z,13.60
2022-10-14T22:11:25.476Z,13.60
2022-10-14T22:13:52.995Z,13.60
2022-10-14T22:16:20.160Z,13.60
2022-10-14T22:18:50.297Z,13.50
2022-10-14T22:21:18.436Z,13.50
2022-10-14T22:23:45.995Z,13.40
2022-10-14T22:26:13.476Z,13.40
2022-10-14T22:28:40.211Z,13.40
2022-10-14T22:31:11.516Z,13.40
2022-10-14T22:33:38.826Z,13.40
2022-10-14T22:36:09.534Z,13.40
2022-10-14T22:38:36.756Z,13.40
2022-10-14T22:41:04.113Z,13.40
2022-10-14T22:43:31.057Z,13.40
2022-10-14T22:46:02.180Z,13.30
2022-10-14T22:48:29.991Z,13.30
2022-10-14T22:51:01.223Z,13.30
2022-10-14T22:53:28.669Z,13.30
2022-10-14T22:55:55.682Z,13.30
2022-10-14T22:58:22.559Z,13.30
2022-10-14T23:00:49.770Z,13.30
2022-10-14T23:03:16.657Z,13.30
2022-10-14T23:05:43.398Z,13.30
2022-10-14T23:08:11.876Z,13.30
2022-10-14T23:10:38.879Z,13.30
2022-10-14T23:13:06.195Z,13.30
2022-10-14T23:15:33.608Z,13.30
2022-10-14T23:18:00.284Z,13.30
2022-10-14T23:20:27.085Z,13.30
2022-10-14T23:22:53.725Z,13.30
2022-10-14T23:25:21.683Z,13.30
2022-10-14T23:30:18.125Z,13.30
2022-10-14T23:32:46.096Z,13.30
2022-10-14T23:35:12.919Z,13.30
2022-10-14T23:37:39.790Z,13.30
2022-10-14T23:40:06.879Z,13.30
2022-10-14T23:42:33.490Z,13.30
2022-10-14T23:45:00.162Z,13.30
2022-10-14T23:47:26.810Z,13.30
2022-10-14T23:49:53.498Z,13.30
2022-10-14T23:52:20.258Z,13.30
2022-10-14T23:54:46.960Z,13.30
2022-10-14T23:57:13.931Z,13.30
2022-10-14T23:59:40.677Z,13.30
